Time;durP1;ratioP1;P1;durP2;ratioP2;P2;SDS_P1;SDS_P2;PMS_P1;PMS_P2;Temp;Humidity;BMP_temperature;BMP_pressure;BME280_temperature;BME280_humidity;BME280_pressure;Samples;Min_cycle;Max_cycle;Signal;HPM_P1;HPM_P2
2024/04/05 00:02:01;;;;;;;0.20;0.10;;;;;;;;;;5132708;27;20196;-67
2024/04/05 00:04:28;;;;;;;0.20;0.10;;;;;;;;;;5133238;27;20252;-66
2024/04/05 00:06:54;;;;;;;0.20;0.10;;;;;;;;;;5136836;27;20168;-67
2024/04/05 00:09:20;;;;;;;0.20;0.10;;;;;;;;;;5133956;27;20185;-67
2024/04/05 00:11:46;;;;;;;0.20;0.10;;;;;;;;;;5133501;27;20569;-67
2024/04/05 00:14:12;;;;;;;0.20;0.10;;;;;;;;;;5134145;27;20181;-67
2024/04/05 00:16:38;;;;;;;0.20;0.10;;;;;;;;;;5132974;27;20181;-67
2024/04/05 00:19:05;;;;;;;0.20;0.10;;;;;;;;;;5132326;27;20536;-67
2024/04/05 00:21:31;;;;;;;0.20;0.10;;;;;;;;;;5132287;27;20201;-67
2024/04/05 00:24:00;;;;;;;0.20;0.10;;;;;;;;;;5132880;27;21265;-67
2024/04/05 00:26:26;;;;;;;0.20;0.10;;;;;;;;;;5131823;27;20648;-67
2024/04/05 00:28:52;;;;;;;0.20;0.10;;;;;;;;;;5130757;27;20177;-67
2024/04/05 00:31:18;;;;;;;0.20;0.10;;;;;;;;;;5133303;27;20205;-67
2024/04/05 00:33:44;;;;;;;0.20;0.10;;;;;;;;;;5132368;27;20188;-67
2024/04/05 00:36:11;;;;;;;0.20;0.10;;;;;;;;;;5132272;27;21092;-67
2024/04/05 00:38:37;;;;;;;0.20;0.10;;;;;;;;;;5129742;27;20201;-67
2024/04/05 00:41:03;;;;;;;0.20;0.10;;;;;;;;;;5132599;27;20177;-67
2024/04/05 00:43:29;;;;;;;0.20;0.10;;;;;;;;;;5132010;27;20212;-67
2024/04/05 00:45:55;;;;;;;0.20;0.10;;;;;;;;;;5131675;27;20184;-67
2024/04/05 00:48:22;;;;;;;0.20;0.10;;;;;;;;;;5130680;27;20185;-67
2024/04/05 00:50:49;;;;;;;0.20;0.10;;;;;;;;;;5143773;27;20172;-67
2024/04/05 00:53:21;;;;;;;0.20;0.10;;;;;;;;;;5136040;27;20280;-67
2024/04/05 00:55:47;;;;;;;0.20;0.10;;;;;;;;;;5131124;27;20180;-67
2024/04/05 00:58:13;;;;;;;0.20;0.10;;;;;;;;;;5130958;27;20177;-67
2024/04/05 01:00:39;;;;;;;0.20;0.10;;;;;;;;;;5136546;27;20176;-67
2024/04/05 01:03:05;;;;;;;0.20;0.10;;;;;;;;;;5130998;27;20219;-66
2024/04/05 01:05:32;;;;;;;0.20;0.10;;;;;;;;;;5131007;27;20181;-67
2024/04/05 01:07:58;;;;;;;0.20;0.10;;;;;;;;;;5129101;27;20612;-67
2024/04/05 01:10:25;;;;;;;0.20;0.10;;;;;;;;;;5131230;27;20615;-67
2024/04/05 01:13:05;;;;;;;0.20;0.10;;;;;;;;;;5131533;27;20259;-67
2024/04/05 01:15:31;;;;;;;0.20;0.10;;;;;;;;;;5134635;27;20191;-67
2024/04/05 01:18:01;;;;;;;0.20;0.10;;;;;;;;;;5138793;27;20176;-67
2024/04/05 01:20:29;;;;;;;0.20;0.10;;;;;;;;;;5131137;27;20179;-67
2024/04/05 01:22:57;;;;;;;0.20;0.10;;;;;;;;;;5129724;27;20681;-67
2024/04/05 01:25:23;;;;;;;0.20;0.00;;;;;;;;;;5129504;27;20184;-67
2024/04/05 01:27:49;;;;;;;0.20;0.10;;;;;;;;;;5130560;27;20169;-67
2024/04/05 01:30:15;;;;;;;0.20;0.10;;;;;;;;;;5130857;27;20556;-67
2024/04/05 01:32:46;;;;;;;0.20;0.10;;;;;;;;;;5118565;27;20594;-67
2024/04/05 01:35:12;;;;;;;0.20;0.10;;;;;;;;;;5131820;27;20257;-67
2024/04/05 01:37:38;;;;;;;0.20;0.10;;;;;;;;;;5127378;27;20406;-67
2024/04/05 01:40:04;;;;;;;0.20;0.10;;;;;;;;;;5128567;27;20177;-67
2024/04/05 01:42:30;;;;;;;0.20;0.10;;;;;;;;;;5130307;27;20207;-67
2024/04/05 01:44:56;;;;;;;0.20;0.10;;;;;;;;;;5130695;27;20173;-67
2024/04/05 01:47:22;;;;;;;0.20;0.10;;;;;;;;;;5130595;27;20183;-68
2024/04/05 01:49:48;;;;;;;0.20;0.10;;;;;;;;;;5130189;27;20180;-67
2024/04/05 01:52:14;;;;;;;0.20;0.10;;;;;;;;;;5136406;27;20200;-67
2024/04/05 01:54:40;;;;;;;0.20;0.10;;;;;;;;;;5133408;27;20632;-67
2024/04/05 01:57:06;;;;;;;0.20;0.10;;;;;;;;;;5120582;27;20227;-67
2024/04/05 01:59:32;;;;;;;0.20;0.10;;;;;;;;;;5128289;27;20177;-67
2024/04/05 02:01:58;;;;;;;0.20;0.10;;;;;;;;;;5125280;27;20201;-67
2024/04/05 02:04:24;;;;;;;0.20;0.10;;;;;;;;;;5126053;27;20213;-67
2024/04/05 02:06:50;;;;;;;0.20;0.10;;;;;;;;;;5123689;27;20165;-67
2024/04/05 02:09:16;;;;;;;0.20;0.10;;;;;;;;;;5130181;27;20648;-67
2024/04/05 02:11:42;;;;;;;0.20;0.10;;;;;;;;;;5130436;27;20627;-67
2024/04/05 02:14:08;;;;;;;0.20;0.10;;;;;;;;;;5130214;27;20213;-67
2024/04/05 02:16:34;;;;;;;0.20;0.10;;;;;;;;;;5129908;27;20543;-67
2024/04/05 02:19:00;;;;;;;0.20;0.10;;;;;;;;;;5110772;27;20180;-67
2024/04/05 02:21:26;;;;;;;0.20;0.10;;;;;;;;;;5129665;27;20227;-67
2024/04/05 02:23:52;;;;;;;0.20;0.10;;;;;;;;;;5130592;27;20204;-67
2024/04/05 02:26:18;;;;;;;0.20;0.10;;;;;;;;;;5131115;27;20651;-67
2024/04/05 02:28:45;;;;;;;0.20;0.10;;;;;;;;;;5129978;27;20551;-67
2024/04/05 02:31:11;;;;;;;0.20;0.10;;;;;;;;;;5132951;27;20215;-67
2024/04/05 02:33:37;;;;;;;0.20;0.10;;;;;;;;;;5125368;27;20201;-67
2024/04/05 02:36:03;;;;;;;0.20;0.10;;;;;;;;;;5130223;27;20173;-67
2024/04/05 02:38:29;;;;;;;0.20;0.10;;;;;;;;;;5130047;27;20287;-67
2024/04/05 02:40:55;;;;;;;0.20;0.10;;;;;;;;;;5130052;27;20177;-67
2024/04/05 02:43:22;;;;;;;0.20;0.10;;;;;;;;;;5128189;27;20219;-67
2024/04/05 02:45:48;;;;;;;0.20;0.10;;;;;;;;;;5129544;27;20165;-67
2024/04/05 02:48:14;;;;;;;0.20;0.10;;;;;;;;;;5130071;27;20219;-66
2024/04/05 02:50:40;;;;;;;0.20;0.10;;;;;;;;;;5130031;27;20505;-67
2024/04/05 02:53:06;;;;;;;0.20;0.10;;;;;;;;;;5129461;27;20233;-67
2024/04/05 02:55:32;;;;;;;0.20;0.10;;;;;;;;;;5126235;27;20187;-67
2024/04/05 02:57:58;;;;;;;0.20;0.10;;;;;;;;;;5136192;27;20246;-66
2024/04/05 03:00:24;;;;;;;0.20;0.10;;;;;;;;;;5138691;27;20177;-67
2024/04/05 03:02:50;;;;;;;0.20;0.10;;;;;;;;;;5129663;27;20281;-67
2024/04/05 03:05:16;;;;;;;0.20;0.10;;;;;;;;;;5129739;27;20650;-67
2024/04/05 03:07:42;;;;;;;0.20;0.10;;;;;;;;;;5129305;27;20182;-67
2024/04/05 03:10:08;;;;;;;0.20;0.10;;;;;;;;;;5129637;27;20180;-67
2024/04/05 03:12:34;;;;;;;0.20;0.10;;;;;;;;;;5129718;27;20209;-67
2024/04/05 03:15:01;;;;;;;0.20;0.10;;;;;;;;;;5129063;27;20225;-67
2024/04/05 03:17:27;;;;;;;0.20;0.10;;;;;;;;;;5128624;27;20169;-67
2024/04/05 03:19:54;;;;;;;0.20;0.10;;;;;;;;;;5129639;27;20368;-67
2024/04/05 03:22:20;;;;;;;0.20;0.10;;;;;;;;;;5128805;27;20215;-66
2024/04/05 03:24:46;;;;;;;0.20;0.10;;;;;;;;;;5129596;27;20177;-67
2024/04/05 03:27:12;;;;;;;0.20;0.10;;;;;;;;;;5126769;27;20180;-67
2024/04/05 03:29:38;;;;;;;0.20;0.10;;;;;;;;;;5126886;27;20181;-67
2024/04/05 03:32:04;;;;;;;0.20;0.10;;;;;;;;;;5128780;27;20197;-67
2024/04/05 03:34:30;;;;;;;0.20;0.10;;;;;;;;;;5128232;27;20173;-66
2024/04/05 03:36:56;;;;;;;0.20;0.10;;;;;;;;;;5128758;27;20249;-67
2024/04/05 03:39:22;;;;;;;0.20;0.10;;;;;;;;;;5128384;27;20174;-67
2024/04/05 03:41:50;;;;;;;0.20;0.10;;;;;;;;;;5123726;27;20201;-67
2024/04/05 03:44:16;;;;;;;0.20;0.10;;;;;;;;;;5127144;27;20207;-67
2024/04/05 03:46:43;;;;;;;0.20;0.03;;;;;;;;;;5125166;27;20165;-67
2024/04/05 03:49:09;;;;;;;0.20;0.10;;;;;;;;;;5128303;27;20689;-67
2024/04/05 03:51:35;;;;;;;0.20;0.10;;;;;;;;;;5124805;27;20271;-67
2024/04/05 03:54:01;;;;;;;0.20;0.10;;;;;;;;;;5129181;27;20480;-67
2024/04/05 03:56:27;;;;;;;0.20;0.10;;;;;;;;;;5131045;27;20691;-67
2024/04/05 03:58:53;;;;;;;0.20;0.10;;;;;;;;;;5130028;27;20177;-67
2024/04/05 04:01:19;;;;;;;0.20;0.10;;;;;;;;;;5133358;27;20187;-67
2024/04/05 04:03:45;;;;;;;0.20;0.10;;;;;;;;;;5140568;27;20215;-67
2024/04/05 04:06:11;;;;;;;0.20;0.10;;;;;;;;;;5132439;27;20670;-66
2024/04/05 04:08:37;;;;;;;0.20;0.10;;;;;;;;;;5132507;27;20187;-67
2024/04/05 04:11:03;;;;;;;0.20;0.10;;;;;;;;;;5132765;27;20173;-67
2024/04/05 04:13:30;;;;;;;0.20;0.10;;;;;;;;;;5132356;27;20184;-67
2024/04/05 04:15:56;;;;;;;0.20;0.10;;;;;;;;;;5129537;27;20176;-68
2024/04/05 04:18:22;;;;;;;0.20;0.10;;;;;;;;;;5132028;27;20181;-68
2024/04/05 04:20:52;;;;;;;0.20;0.10;;;;;;;;;;5132795;27;20192;-68
2024/04/05 04:23:18;;;;;;;0.20;0.10;;;;;;;;;;5113219;27;20212;-66
2024/04/05 04:25:45;;;;;;;0.20;0.10;;;;;;;;;;5129576;27;20590;-67
2024/04/05 04:28:11;;;;;;;0.20;0.10;;;;;;;;;;5127805;27;20173;-67
2024/04/05 04:30:37;;;;;;;0.20;0.10;;;;;;;;;;5131919;27;20285;-67
2024/04/05 04:33:03;;;;;;;0.20;0.10;;;;;;;;;;5132644;27;20201;-67
2024/04/05 04:35:29;;;;;;;0.20;0.10;;;;;;;;;;5127155;27;20185;-66
2024/04/05 04:37:55;;;;;;;0.20;0.10;;;;;;;;;;5127524;27;20683;-67
2024/04/05 04:40:21;;;;;;;0.20;0.10;;;;;;;;;;5134070;27;20172;-67
2024/04/05 04:42:48;;;;;;;0.20;0.10;;;;;;;;;;5132131;27;20912;-67
2024/04/05 04:45:13;;;;;;;0.20;0.10;;;;;;;;;;5131530;27;20157;-67
2024/04/05 04:47:39;;;;;;;0.20;0.10;;;;;;;;;;5131549;27;20613;-67
2024/04/05 04:50:06;;;;;;;0.20;0.10;;;;;;;;;;5131628;27;20173;-67
2024/04/05 04:52:32;;;;;;;0.20;0.10;;;;;;;;;;5131828;27;20199;-67
2024/04/05 04:54:58;;;;;;;0.20;0.10;;;;;;;;;;5120694;27;20185;-67
2024/04/05 04:57:24;;;;;;;0.20;0.10;;;;;;;;;;5130110;27;20184;-67
2024/04/05 04:59:53;;;;;;;0.20;0.10;;;;;;;;;;5130841;27;20188;-67
2024/04/05 05:02:19;;;;;;;0.20;0.10;;;;;;;;;;5130979;27;20701;-67
2024/04/05 05:04:46;;;;;;;0.20;0.10;;;;;;;;;;5137814;27;20192;-67
2024/04/05 05:07:12;;;;;;;0.20;0.10;;;;;;;;;;5135550;27;20245;-67
2024/04/05 05:09:39;;;;;;;0.20;0.10;;;;;;;;;;5138785;27;20319;-67
2024/04/05 05:12:05;;;;;;;0.20;0.10;;;;;;;;;;5131388;27;20277;-67
2024/04/05 05:14:31;;;;;;;0.20;0.08;;;;;;;;;;5129184;27;20177;-66
2024/04/05 05:16:57;;;;;;;0.20;0.10;;;;;;;;;;5126914;27;20180;-67
2024/04/05 05:19:23;;;;;;;0.20;0.10;;;;;;;;;;5128262;27;20606;-66
2024/04/05 05:21:49;;;;;;;0.20;0.10;;;;;;;;;;5130127;27;20212;-66
2024/04/05 05:24:15;;;;;;;0.20;0.10;;;;;;;;;;5130513;27;20207;-67
2024/04/05 05:26:41;;;;;;;0.20;0.10;;;;;;;;;;5127995;27;20674;-66
2024/04/05 05:29:07;;;;;;;0.20;0.10;;;;;;;;;;5130623;27;20168;-67
2024/04/05 05:31:33;;;;;;;0.20;0.10;;;;;;;;;;5129174;27;20870;-67
2024/04/05 05:33:59;;;;;;;0.20;0.10;;;;;;;;;;5130173;27;20606;-67
2024/04/05 05:36:25;;;;;;;0.20;0.10;;;;;;;;;;5129003;27;20180;-67
2024/04/05 05:38:51;;;;;;;0.20;0.10;;;;;;;;;;5129982;27;20177;-67
2024/04/05 05:41:17;;;;;;;0.20;0.10;;;;;;;;;;5130295;27;20225;-67
2024/04/05 05:43:44;;;;;;;0.20;0.10;;;;;;;;;;5131845;27;20196;-67
2024/04/05 05:46:10;;;;;;;0.20;0.10;;;;;;;;;;5134975;27;20193;-67
2024/04/05 05:48:36;;;;;;;0.20;0.10;;;;;;;;;;5136243;27;20168;-67
2024/04/05 05:51:01;;;;;;;0.20;0.10;;;;;;;;;;5128875;27;20185;-67
2024/04/05 05:53:28;;;;;;;0.20;0.10;;;;;;;;;;5131494;27;20214;-67
2024/04/05 05:55:54;;;;;;;0.20;0.10;;;;;;;;;;5123166;27;20173;-67
2024/04/05 05:58:20;;;;;;;0.20;0.10;;;;;;;;;;5131313;27;20230;-66
2024/04/05 06:00:46;;;;;;;0.20;0.10;;;;;;;;;;5130367;27;20176;-67
2024/04/05 06:03:12;;;;;;;0.20;0.10;;;;;;;;;;5130333;27;20215;-67
2024/04/05 06:05:38;;;;;;;0.20;0.10;;;;;;;;;;5111156;27;20189;-67
2024/04/05 06:08:04;;;;;;;0.20;0.03;;;;;;;;;;5135470;27;20171;-67
2024/04/05 06:10:31;;;;;;;0.20;0.10;;;;;;;;;;5139043;27;20203;-67
2024/04/05 06:12:57;;;;;;;0.20;0.10;;;;;;;;;;5123203;27;20663;-67
2024/04/05 06:15:24;;;;;;;0.20;0.10;;;;;;;;;;5130270;27;20824;-67
2024/04/05 06:17:49;;;;;;;0.20;0.10;;;;;;;;;;5130659;27;20183;-67
2024/04/05 06:20:15;;;;;;;0.20;0.10;;;;;;;;;;5128707;27;20189;-66
2024/04/05 06:22:42;;;;;;;0.20;0.10;;;;;;;;;;5129444;27;20208;-67
2024/04/05 06:25:08;;;;;;;0.20;0.10;;;;;;;;;;5128481;27;20177;-67
2024/04/05 06:27:37;;;;;;;0.20;0.10;;;;;;;;;;5127980;27;20544;-67
2024/04/05 06:30:04;;;;;;;0.20;0.10;;;;;;;;;;5128468;27;20846;-67
2024/04/05 06:32:33;;;;;;;0.20;0.10;;;;;;;;;;5124697;27;20696;-67
2024/04/05 06:34:59;;;;;;;0.20;0.10;;;;;;;;;;5127234;27;20204;-67
2024/04/05 06:37:26;;;;;;;0.20;0.00;;;;;;;;;;5123375;27;20211;-66
2024/04/05 06:39:53;;;;;;;0.20;0.10;;;;;;;;;;5122807;27;20226;-67
2024/04/05 06:42:20;;;;;;;0.20;0.10;;;;;;;;;;5128682;27;20199;-67
2024/04/05 06:44:49;;;;;;;0.20;0.10;;;;;;;;;;5126780;27;20180;-66
2024/04/05 06:47:15;;;;;;;0.20;0.10;;;;;;;;;;5126523;27;20181;-66
2024/04/05 06:49:41;;;;;;;0.20;0.10;;;;;;;;;;5126480;27;20254;-65
2024/04/05 06:52:08;;;;;;;0.20;0.10;;;;;;;;;;5126784;27;20205;-66
2024/04/05 06:54:45;;;;;;;0.20;0.10;;;;;;;;;;5128724;27;20248;-66
2024/04/05 06:57:11;;;;;;;0.20;0.10;;;;;;;;;;5126751;27;20179;-66
2024/04/05 06:59:38;;;;;;;0.20;0.10;;;;;;;;;;5125652;27;20207;-66
2024/04/05 07:02:04;;;;;;;0.20;0.10;;;;;;;;;;5125214;27;20193;-66
2024/04/05 07:04:33;;;;;;;0.20;0.10;;;;;;;;;;5125564;27;20268;-65
2024/04/05 07:06:59;;;;;;;0.20;0.10;;;;;;;;;;5125198;27;20758;-65
2024/04/05 07:09:28;;;;;;;0.20;0.10;;;;;;;;;;5121161;27;20381;-65
2024/04/05 07:11:55;;;;;;;0.20;0.10;;;;;;;;;;5131542;27;20204;-65
2024/04/05 07:14:21;;;;;;;0.20;0.00;;;;;;;;;;5132424;27;20628;-65
2024/04/05 07:16:48;;;;;;;0.20;0.10;;;;;;;;;;5125942;27;20181;-66
2024/04/05 07:19:14;;;;;;;0.20;0.10;;;;;;;;;;5127550;27;20209;-68
2024/04/05 07:21:40;;;;;;;0.20;0.10;;;;;;;;;;5129709;27;20972;-66
2024/04/05 07:24:06;;;;;;;0.20;0.10;;;;;;;;;;5115701;27;21058;-71
2024/04/05 07:26:33;;;;;;;0.20;0.10;;;;;;;;;;5133170;27;20169;-70
2024/04/05 07:28:59;;;;;;;0.20;0.10;;;;;;;;;;5130438;27;21050;-70
2024/04/05 07:31:25;;;;;;;0.20;0.10;;;;;;;;;;5128392;27;20201;-69
2024/04/05 07:33:52;;;;;;;0.20;0.10;;;;;;;;;;5138897;27;20179;-70
2024/04/05 07:36:18;;;;;;;0.20;0.10;;;;;;;;;;5131890;27;20204;-71
2024/04/05 07:38:45;;;;;;;0.20;0.10;;;;;;;;;;5127242;27;21183;-69
2024/04/05 07:41:11;;;;;;;0.20;0.10;;;;;;;;;;5129463;27;20204;-70
2024/04/05 07:43:37;;;;;;;0.20;0.10;;;;;;;;;;5132013;27;20207;-71
2024/04/05 07:46:03;;;;;;;0.20;0.10;;;;;;;;;;5130558;27;20184;-69
2024/04/05 07:48:31;;;;;;;0.20;0.10;;;;;;;;;;5127614;27;20208;-69
2024/04/05 07:51:00;;;;;;;0.20;0.10;;;;;;;;;;5126278;27;21115;-71
2024/04/05 07:53:26;;;;;;;0.20;0.10;;;;;;;;;;5127295;27;20232;-70
2024/04/05 07:55:52;;;;;;;0.20;0.10;;;;;;;;;;5131266;27;20181;-70
2024/04/05 07:58:19;;;;;;;0.20;0.10;;;;;;;;;;5128679;27;20231;-69
2024/04/05 08:00:45;;;;;;;0.20;0.10;;;;;;;;;;5126520;27;20176;-70
2024/04/05 08:03:11;;;;;;;0.20;0.10;;;;;;;;;;5131507;27;20617;-69
2024/04/05 08:05:37;;;;;;;0.20;0.10;;;;;;;;;;5127723;27;20177;-69
2024/04/05 08:08:03;;;;;;;0.20;0.10;;;;;;;;;;5129997;27;20225;-68
2024/04/05 08:10:32;;;;;;;0.20;0.00;;;;;;;;;;5128058;27;20176;-69
2024/04/05 08:12:58;;;;;;;0.20;0.10;;;;;;;;;;5129012;27;20201;-69
2024/04/05 08:15:25;;;;;;;0.20;0.10;;;;;;;;;;5134163;27;20682;-71
2024/04/05 08:17:51;;;;;;;0.20;0.10;;;;;;;;;;5129858;27;20676;-69
2024/04/05 08:20:18;;;;;;;0.20;0.10;;;;;;;;;;5128822;27;20188;-69
2024/04/05 08:22:44;;;;;;;0.20;0.10;;;;;;;;;;5126980;27;20291;-69
2024/04/05 08:25:10;;;;;;;0.20;0.10;;;;;;;;;;5128696;27;20610;-69
2024/04/05 08:27:36;;;;;;;0.20;0.10;;;;;;;;;;5136224;27;20177;-69
2024/04/05 08:30:02;;;;;;;0.20;0.10;;;;;;;;;;5131728;27;20169;-69
2024/04/05 08:32:28;;;;;;;0.20;0.10;;;;;;;;;;5127856;27;20199;-69
2024/04/05 08:34:55;;;;;;;0.20;0.10;;;;;;;;;;5116629;27;20165;-69
2024/04/05 08:37:21;;;;;;;0.20;0.10;;;;;;;;;;5109925;27;20188;-68
2024/04/05 08:39:47;;;;;;;0.20;0.10;;;;;;;;;;5132442;27;20176;-69
2024/04/05 08:42:20;;;;;;;0.20;0.10;;;;;;;;;;5130690;27;20350;-69
2024/04/05 08:44:49;;;;;;;0.20;0.10;;;;;;;;;;5129750;27;20585;-68
2024/04/05 08:47:16;;;;;;;0.20;0.10;;;;;;;;;;5132625;27;20544;-68
2024/04/05 08:49:43;;;;;;;0.20;0.10;;;;;;;;;;5131917;27;20169;-68
2024/04/05 08:52:09;;;;;;;0.20;0.10;;;;;;;;;;5128623;27;20717;-67
2024/04/05 08:54:36;;;;;;;0.20;0.10;;;;;;;;;;5132308;27;20264;-65
2024/04/05 08:57:02;;;;;;;0.20;0.10;;;;;;;;;;5131098;27;20186;-65
2024/04/05 08:59:29;;;;;;;0.20;0.10;;;;;;;;;;5132064;27;20184;-65
2024/04/05 09:01:57;;;;;;;0.20;0.10;;;;;;;;;;5131636;27;20561;-65
2024/04/05 09:04:23;;;;;;;0.20;0.10;;;;;;;;;;5132131;27;20204;-66
2024/04/05 09:06:50;;;;;;;0.20;0.10;;;;;;;;;;5128638;27;20216;-65
2024/04/05 09:09:29;;;;;;;0.20;0.10;;;;;;;;;;5120652;27;20195;-65
2024/04/05 09:12:01;;;;;;;0.20;0.10;;;;;;;;;;5131398;27;20195;-66
2024/04/05 09:14:27;;;;;;;0.20;0.10;;;;;;;;;;5122866;27;20261;-66
2024/04/05 09:16:54;;;;;;;0.20;0.10;;;;;;;;;;5126871;27;20176;-65
2024/04/05 09:19:22;;;;;;;0.20;0.10;;;;;;;;;;5130004;27;20568;-65
2024/04/05 09:21:48;;;;;;;0.20;0.10;;;;;;;;;;5135772;27;20242;-66
2024/04/05 09:24:15;;;;;;;0.20;0.10;;;;;;;;;;5129356;27;20649;-66
2024/04/05 09:26:41;;;;;;;0.20;0.10;;;;;;;;;;5129043;27;20173;-65
2024/04/05 09:29:07;;;;;;;0.20;0.10;;;;;;;;;;5132162;27;20172;-65
2024/04/05 09:31:34;;;;;;;0.20;0.10;;;;;;;;;;5131471;27;20200;-66
2024/04/05 09:34:18;;;;;;;0.20;0.10;;;;;;;;;;5131350;27;20204;-65
2024/04/05 09:36:44;;;;;;;0.20;0.10;;;;;;;;;;5128219;27;20200;-66
2024/04/05 09:39:14;;;;;;;0.20;0.10;;;;;;;;;;5130505;27;20592;-65
2024/04/05 09:41:40;;;;;;;0.20;0.10;;;;;;;;;;5131090;27;20213;-66
2024/04/05 09:44:07;;;;;;;0.20;0.10;;;;;;;;;;5130797;27;20203;-66
2024/04/05 09:46:35;;;;;;;0.20;0.10;;;;;;;;;;5131029;27;20184;-65
2024/04/05 09:49:02;;;;;;;0.20;0.10;;;;;;;;;;5122124;27;20194;-66
2024/04/05 09:51:44;;;;;;;0.20;0.10;;;;;;;;;;5129846;27;20198;-66
2024/04/05 09:54:19;;;;;;;0.20;0.10;;;;;;;;;;5126592;27;20185;-66
2024/04/05 09:56:45;;;;;;;0.20;0.10;;;;;;;;;;5126021;27;20184;-68
2024/04/05 09:59:24;;;;;;;0.20;0.10;;;;;;;;;;5129104;27;20260;-66
2024/04/05 10:01:51;;;;;;;0.20;0.10;;;;;;;;;;5128801;27;20752;-68
2024/04/05 10:04:18;;;;;;;0.20;0.10;;;;;;;;;;5131717;27;20205;-67
2024/04/05 10:06:45;;;;;;;0.20;0.10;;;;;;;;;;5125856;27;20164;-67
2024/04/05 10:09:15;;;;;;;0.20;0.15;;;;;;;;;;5126958;27;20565;-66
2024/04/05 10:11:41;;;;;;;0.20;0.10;;;;;;;;;;5123813;27;20207;-66
2024/04/05 10:14:08;;;;;;;0.20;0.10;;;;;;;;;;5126587;27;20180;-69
2024/04/05 10:16:34;;;;;;;0.20;0.10;;;;;;;;;;5126676;27;20667;-70
2024/04/05 10:19:09;;;;;;;0.20;0.10;;;;;;;;;;5125030;27;20189;-70
2024/04/05 10:21:36;;;;;;;0.20;0.10;;;;;;;;;;5107259;27;20208;-69
2024/04/05 10:24:03;;;;;;;0.20;0.10;;;;;;;;;;5133913;27;20196;-69
2024/04/05 10:26:29;;;;;;;0.20;0.10;;;;;;;;;;5133500;27;20165;-69
2024/04/05 10:29:04;;;;;;;0.20;0.10;;;;;;;;;;5125749;27;20172;-70
2024/04/05 10:31:31;;;;;;;0.20;0.10;;;;;;;;;;5137690;27;20192;-68
2024/04/05 10:33:58;;;;;;;0.20;0.10;;;;;;;;;;5128679;27;20177;-67
2024/04/05 10:36:23;;;;;;;0.20;0.10;;;;;;;;;;5126136;27;20669;-68
2024/04/05 10:38:49;;;;;;;0.20;0.10;;;;;;;;;;5125683;27;20192;-68
2024/04/05 10:41:16;;;;;;;0.20;0.10;;;;;;;;;;5125208;27;20263;-68
2024/04/05 10:43:43;;;;;;;0.20;0.10;;;;;;;;;;5128047;27;20189;-66
2024/04/05 10:46:10;;;;;;;0.20;0.10;;;;;;;;;;5125610;27;20195;-69
2024/04/05 10:48:36;;;;;;;0.20;0.10;;;;;;;;;;5126165;27;20988;-68
2024/04/05 10:51:04;;;;;;;0.20;0.10;;;;;;;;;;5123626;27;20177;-67
2024/04/05 10:53:31;;;;;;;0.20;0.10;;;;;;;;;;5128411;27;20203;-67
2024/04/05 10:55:57;;;;;;;0.20;0.10;;;;;;;;;;5126564;27;20640;-69
2024/04/05 10:58:23;;;;;;;0.20;0.10;;;;;;;;;;5137142;27;20177;-68
2024/04/05 11:00:49;;;;;;;0.20;0.10;;;;;;;;;;5130121;27;20211;-67
2024/04/05 11:03:16;;;;;;;0.20;0.10;;;;;;;;;;5129256;27;20200;-68
2024/04/05 11:05:44;;;;;;;0.20;0.10;;;;;;;;;;5132597;27;20217;-68
2024/04/05 11:08:14;;;;;;;0.20;0.10;;;;;;;;;;5124121;27;20169;-69
2024/04/05 11:10:40;;;;;;;0.20;0.10;;;;;;;;;;5113300;27;20270;-68
2024/04/05 11:13:16;;;;;;;0.20;0.10;;;;;;;;;;5129983;27;20200;-69
2024/04/05 11:15:43;;;;;;;0.20;0.00;;;;;;;;;;5132412;27;20183;-69
2024/04/05 11:18:09;;;;;;;0.20;0.10;;;;;;;;;;5118645;27;20273;-68
2024/04/05 11:20:39;;;;;;;0.20;0.10;;;;;;;;;;5125964;27;20169;-68
2024/04/05 11:23:06;;;;;;;0.20;0.10;;;;;;;;;;5110897;27;20224;-68
2024/04/05 11:25:32;;;;;;;0.20;0.10;;;;;;;;;;5141514;27;20582;-68
2024/04/05 11:27:58;;;;;;;0.20;0.10;;;;;;;;;;5133993;27;20174;-69
2024/04/05 11:30:25;;;;;;;0.20;0.10;;;;;;;;;;5144137;27;20180;-69
2024/04/05 11:32:51;;;;;;;0.20;0.10;;;;;;;;;;5108665;27;20273;-69
2024/04/05 11:35:17;;;;;;;0.20;0.10;;;;;;;;;;5128052;27;20189;-69
2024/04/05 11:37:43;;;;;;;0.20;0.10;;;;;;;;;;5127862;27;20514;-69
2024/04/05 11:40:10;;;;;;;0.20;0.10;;;;;;;;;;5111840;27;20180;-69
2024/04/05 11:42:39;;;;;;;0.20;0.10;;;;;;;;;;5131614;27;20284;-67
2024/04/05 11:45:06;;;;;;;0.20;0.10;;;;;;;;;;5130177;27;20276;-69
2024/04/05 11:47:33;;;;;;;0.20;0.10;;;;;;;;;;5128559;27;20173;-68
2024/04/05 11:49:59;;;;;;;0.20;0.10;;;;;;;;;;5129578;27;20172;-69
2024/04/05 11:52:25;;;;;;;0.20;0.10;;;;;;;;;;5129464;27;20197;-69
2024/04/05 11:54:52;;;;;;;0.20;0.10;;;;;;;;;;5128949;27;20212;-69
2024/04/05 11:57:18;;;;;;;0.20;0.10;;;;;;;;;;5129967;27;20172;-68
2024/04/05 11:59:44;;;;;;;0.20;0.10;;;;;;;;;;5125115;27;20173;-69
2024/04/05 12:02:11;;;;;;;0.20;0.10;;;;;;;;;;5129719;27;20199;-70
2024/04/05 12:04:38;;;;;;;0.20;0.10;;;;;;;;;;5128880;27;20197;-69
2024/04/05 12:07:04;;;;;;;0.20;0.10;;;;;;;;;;5129578;27;20736;-68
2024/04/05 12:09:30;;;;;;;0.20;0.10;;;;;;;;;;5111054;27;20177;-68
2024/04/05 12:11:56;;;;;;;0.20;0.10;;;;;;;;;;5130369;27;20203;-67
2024/04/05 12:14:22;;;;;;;0.20;0.10;;;;;;;;;;5130258;27;20231;-66
2024/04/05 12:16:48;;;;;;;0.20;0.10;;;;;;;;;;5128369;27;20817;-68
2024/04/05 12:19:14;;;;;;;0.20;0.10;;;;;;;;;;5129829;27;20176;-67
2024/04/05 12:21:43;;;;;;;0.20;0.10;;;;;;;;;;5111994;27;20349;-65
2024/04/05 12:24:09;;;;;;;0.20;0.10;;;;;;;;;;5129050;27;20201;-64
2024/04/05 12:26:36;;;;;;;0.20;0.10;;;;;;;;;;5120088;27;20200;-64
2024/04/05 12:29:02;;;;;;;0.20;0.10;;;;;;;;;;5130240;27;20308;-66
2024/04/05 12:31:28;;;;;;;0.20;0.10;;;;;;;;;;5142022;27;20663;-66
2024/04/05 12:33:54;;;;;;;0.20;0.10;;;;;;;;;;5130348;27;20260;-64
2024/04/05 12:36:20;;;;;;;0.20;0.10;;;;;;;;;;5121804;27;20671;-65
2024/04/05 12:38:46;;;;;;;0.20;0.10;;;;;;;;;;5129176;27;20252;-65
2024/04/05 12:41:13;;;;;;;0.20;0.10;;;;;;;;;;5128468;27;20293;-65
2024/04/05 12:43:39;;;;;;;0.20;0.10;;;;;;;;;;5127896;27;20196;-65
2024/04/05 12:46:06;;;;;;;0.20;0.08;;;;;;;;;;5127695;27;20206;-65
2024/04/05 12:48:32;;;;;;;0.20;0.10;;;;;;;;;;5121729;27;20208;-65
2024/04/05 12:51:10;;;;;;;0.20;0.10;;;;;;;;;;5127036;27;20200;-65
2024/04/05 12:53:36;;;;;;;0.20;0.10;;;;;;;;;;5133713;27;20176;-66
2024/04/05 12:56:03;;;;;;;0.20;0.10;;;;;;;;;;5125122;27;20234;-65
2024/04/05 12:58:30;;;;;;;0.20;0.10;;;;;;;;;;5127820;27;20188;-63
2024/04/05 13:01:03;;;;;;;0.20;0.10;;;;;;;;;;5123927;27;20177;-65
2024/04/05 13:03:32;;;;;;;0.20;0.10;;;;;;;;;;5127841;27;20204;-64
2024/04/05 13:06:04;;;;;;;0.20;0.10;;;;;;;;;;5125837;27;20608;-65
2024/04/05 13:08:30;;;;;;;0.20;0.10;;;;;;;;;;5128116;27;20208;-64
2024/04/05 13:10:57;;;;;;;0.20;0.10;;;;;;;;;;5125916;27;20200;-65
2024/04/05 13:13:23;;;;;;;0.20;0.10;;;;;;;;;;5127205;27;20276;-68
2024/04/05 13:15:49;;;;;;;0.20;0.10;;;;;;;;;;5127609;27;20181;-70
2024/04/05 13:18:16;;;;;;;0.20;0.10;;;;;;;;;;5123746;27;20256;-69
2024/04/05 13:20:42;;;;;;;0.20;0.10;;;;;;;;;;5125728;27;20173;-69
2024/04/05 13:23:08;;;;;;;0.20;0.10;;;;;;;;;;5124665;27;20235;-67
2024/04/05 13:25:34;;;;;;;0.20;0.10;;;;;;;;;;5126599;27;20201;-68
2024/04/05 13:28:00;;;;;;;0.20;0.10;;;;;;;;;;5124798;27;20176;-65
2024/04/05 13:30:26;;;;;;;0.20;0.10;;;;;;;;;;5126203;27;20260;-67
2024/04/05 13:32:56;;;;;;;0.20;0.10;;;;;;;;;;5124940;27;20211;-64
2024/04/05 13:35:28;;;;;;;0.20;0.10;;;;;;;;;;5123001;27;20241;-69
2024/04/05 13:37:53;;;;;;;0.20;0.10;;;;;;;;;;5113890;27;20645;-69
2024/04/05 13:40:19;;;;;;;0.20;0.10;;;;;;;;;;5121742;27;20259;-69
2024/04/05 13:42:47;;;;;;;0.20;0.10;;;;;;;;;;5136515;27;20204;-69
2024/04/05 13:45:13;;;;;;;0.20;0.00;;;;;;;;;;5135426;27;20184;-69
2024/04/05 13:47:39;;;;;;;0.20;0.10;;;;;;;;;;5128219;27;20177;-68
2024/04/05 13:50:05;;;;;;;0.20;0.10;;;;;;;;;;5125207;27;20233;-68
2024/04/05 13:52:31;;;;;;;0.20;0.10;;;;;;;;;;5136768;27;20233;-68
2024/04/05 13:54:57;;;;;;;0.20;0.10;;;;;;;;;;5129749;27;20184;-69
2024/04/05 13:57:23;;;;;;;0.20;0.10;;;;;;;;;;5133803;27;20294;-67
2024/04/05 13:59:49;;;;;;;0.20;0.10;;;;;;;;;;5129725;27;20260;-67
2024/04/05 14:02:15;;;;;;;0.20;0.10;;;;;;;;;;5129002;27;20279;-65
2024/04/05 14:04:45;;;;;;;0.20;0.10;;;;;;;;;;5133249;27;20203;-66
2024/04/05 14:07:11;;;;;;;0.20;0.10;;;;;;;;;;5130730;27;20192;-67
2024/04/05 14:09:39;;;;;;;0.20;0.10;;;;;;;;;;5131492;27;20185;-66
2024/04/05 14:12:05;;;;;;;0.20;0.10;;;;;;;;;;5132500;27;20855;-66
2024/04/05 14:14:33;;;;;;;0.20;0.10;;;;;;;;;;5130651;27;20180;-66
2024/04/05 14:16:59;;;;;;;0.20;0.10;;;;;;;;;;5126111;27;20177;-68
2024/04/05 14:19:25;;;;;;;0.20;0.10;;;;;;;;;;5132947;27;20183;-69
2024/04/05 14:21:51;;;;;;;0.20;0.10;;;;;;;;;;5134597;27;20208;-67
2024/04/05 14:24:17;;;;;;;0.20;0.10;;;;;;;;;;5129883;27;20718;-65
2024/04/05 14:26:43;;;;;;;0.20;0.10;;;;;;;;;;5127747;27;20177;-65
2024/04/05 14:29:10;;;;;;;0.20;0.10;;;;;;;;;;5128123;27;20172;-66
2024/04/05 14:31:36;;;;;;;0.20;0.10;;;;;;;;;;5127571;27;20725;-67
2024/04/05 14:34:02;;;;;;;0.20;0.10;;;;;;;;;;5127117;27;20203;-66
2024/04/05 14:36:29;;;;;;;0.20;0.10;;;;;;;;;;5106767;27;20708;-66
2024/04/05 14:38:55;;;;;;;0.20;0.10;;;;;;;;;;5132998;27;20263;-68
2024/04/05 14:41:21;;;;;;;0.20;0.10;;;;;;;;;;5136570;27;20184;-67